createdAt,value
2023-01-23T00:01:35.309Z,6.80
2023-01-23T00:04:03.921Z,5.20
2023-01-23T00:06:31.553Z,10.00
2023-01-23T00:08:59.261Z,5.20
2023-01-23T00:11:30.442Z,11.60
2023-01-23T00:13:59.488Z,11.40
2023-01-23T00:16:30.225Z,6.00
2023-01-23T00:18:58.724Z,13.80
2023-01-23T00:21:28.589Z,3.60
2023-01-23T00:23:58.080Z,6.00
2023-01-23T00:26:29.782Z,9.00
2023-01-23T00:28:57.397Z,10.60
2023-01-23T00:31:28.319Z,12.00
2023-01-23T00:34:02.955Z,10.20
2023-01-23T00:36:38.821Z,9.00
2023-01-23T00:39:17.209Z,13.80
2023-01-23T00:41:46.540Z,9.00
2023-01-23T00:44:14.464Z,14.60
2023-01-23T00:46:42.329Z,8.60
2023-01-23T00:49:10.132Z,10.40
2023-01-23T00:51:37.820Z,6.60
2023-01-23T00:54:06.112Z,9.00
2023-01-23T00:56:34.744Z,9.40
2023-01-23T00:59:02.130Z,9.00
2023-01-23T01:01:33.054Z,9.40
2023-01-23T01:04:01.069Z,9.60
2023-01-23T01:06:30.351Z,6.20
2023-01-23T01:08:59.955Z,6.60
2023-01-23T01:11:28.034Z,3.20
2023-01-23T01:14:00.700Z,3.20
2023-01-23T01:16:28.674Z,11.20
2023-01-23T01:18:59.000Z,10.00
2023-01-23T01:21:26.781Z,4.75
2023-01-23T01:23:54.343Z,10.00
2023-01-23T01:26:23.299Z,11.50
2023-01-23T01:28:51.562Z,7.00
2023-01-23T01:31:19.249Z,7.00
2023-01-23T01:33:46.914Z,9.40
2023-01-23T01:36:18.275Z,9.20
2023-01-23T01:38:48.316Z,6.40
2023-01-23T01:41:17.832Z,9.00
2023-01-23T01:43:45.581Z,7.80
2023-01-23T01:46:18.514Z,7.00
2023-01-23T01:48:52.632Z,4.50
2023-01-23T01:51:26.451Z,4.50
2023-01-23T01:54:25.523Z,6.50
2023-01-23T01:56:55.460Z,6.50
2023-01-23T01:59:24.631Z,5.50
2023-01-23T02:01:58.294Z,6.50
2023-01-23T02:04:26.271Z,6.00
2023-01-23T02:06:56.040Z,3.75
2023-01-23T02:09:26.986Z,4.00
2023-01-23T02:11:54.875Z,4.00
2023-01-23T02:14:26.056Z,4.00
2023-01-23T02:16:56.414Z,3.20
2023-01-23T02:19:45.764Z,4.80
2023-01-23T02:22:46.619Z,6.80
2023-01-23T02:25:33.068Z,3.60
2023-01-23T02:28:01.670Z,1.80
2023-01-23T02:30:31.219Z,5.20
2023-01-23T02:33:32.679Z,5.20
2023-01-23T02:36:02.529Z,6.00
2023-01-23T02:38:35.924Z,5.50
2023-01-23T02:41:07.926Z,3.80
2023-01-23T02:43:37.872Z,4.00
2023-01-23T02:46:11.030Z,5.20
2023-01-23T02:48:44.610Z,3.80
2023-01-23T02:51:12.469Z,3.80
2023-01-23T02:53:40.225Z,6.80
2023-01-23T02:56:08.061Z,6.00
2023-01-23T02:58:53.896Z,5.20
2023-01-23T03:01:21.985Z,6.00
2023-01-23T03:03:51.750Z,3.00
2023-01-23T03:06:19.571Z,5.60
2023-01-23T03:08:50.341Z,3.40
2023-01-23T03:11:19.352Z,5.20
2023-01-23T03:13:47.760Z,5.60
2023-01-23T03:16:15.762Z,6.60
2023-01-23T03:18:53.805Z,5.20
2023-01-23T03:21:23.584Z,5.20
2023-01-23T03:23:51.422Z,4.40
2023-01-23T03:26:18.972Z,6.40
2023-01-23T03:29:06.999Z,7.00
2023-01-23T03:31:36.089Z,6.00
2023-01-23T03:34:03.764Z,3.60
2023-01-23T03:36:37.559Z,4.00
2023-01-23T03:39:26.010Z,6.00
2023-01-23T03:41:54.965Z,6.80
2023-01-23T03:44:24.708Z,6.00
2023-01-23T03:46:53.579Z,7.00
2023-01-23T03:49:21.421Z,9.60
2023-01-23T03:51:55.711Z,6.80
2023-01-23T03:54:23.619Z,10.80
2023-01-23T03:56:52.286Z,5.80
2023-01-23T03:59:42.639Z,4.00
2023-01-23T04:02:11.181Z,6.40
2023-01-23T04:04:39.133Z,3.00
2023-01-23T04:07:09.243Z,9.00
2023-01-23T04:09:38.923Z,3.40
2023-01-23T04:12:07.337Z,6.00
2023-01-23T04:14:38.871Z,3.00
2023-01-23T04:17:08.930Z,3.40
2023-01-23T04:19:36.657Z,8.80
2023-01-23T04:22:05.164Z,5.80
2023-01-23T04:24:39.649Z,2.20
2023-01-23T04:27:08.379Z,5.40
2023-01-23T04:29:37.159Z,5.40
2023-01-23T04:32:05.068Z,6.00
2023-01-23T04:34:35.647Z,8.60
2023-01-23T04:37:03.188Z,3.00
2023-01-23T04:39:32.472Z,4.00
2023-01-23T04:42:00.468Z,1.40
2023-01-23T04:44:47.751Z,3.00
2023-01-23T04:47:33.812Z,3.00
2023-01-23T04:50:03.471Z,9.80
2023-01-23T04:52:34.267Z,13.40
2023-01-23T04:55:02.038Z,6.60
2023-01-23T04:57:29.718Z,4.80
2023-01-23T05:00:05.494Z,6.00
2023-01-23T05:02:33.433Z,2.60
2023-01-23T05:05:01.601Z,3.80
2023-01-23T05:07:29.353Z,3.80
2023-01-23T05:10:23.061Z,3.40
2023-01-23T05:12:50.811Z,3.80
2023-01-23T05:15:18.782Z,4.00
2023-01-23T05:17:49.118Z,3.60
2023-01-23T05:20:16.892Z,3.00
2023-01-23T05:22:52.784Z,4.00
2023-01-23T05:25:28.729Z,3.20
2023-01-23T05:27:58.276Z,5.20
2023-01-23T05:30:26.333Z,3.80
2023-01-23T05:33:02.858Z,5.60
2023-01-23T05:35:30.468Z,3.80
2023-01-23T05:37:58.168Z,4.00
2023-01-23T05:40:26.729Z,3.80
2023-01-23T05:43:15.382Z,3.00
2023-01-23T05:46:03.467Z,1.00
2023-01-23T05:48:52.506Z,2.40
2023-01-23T05:51:22.273Z,6.40
2023-01-23T05:53:50.322Z,5.60
2023-01-23T05:56:18.641Z,3.40
2023-01-23T05:59:09.533Z,3.00
2023-01-23T06:01:42.990Z,3.60
2023-01-23T06:04:49.201Z,4.00
2023-01-23T06:07:26.138Z,3.00
2023-01-23T06:09:56.898Z,4.40
2023-01-23T06:12:24.588Z,4.00
2023-01-23T06:14:51.818Z,7.20
2023-01-23T06:17:19.188Z,4.00
2023-01-23T06:19:47.520Z,2.60
2023-01-23T06:22:16.364Z,5.60
2023-01-23T06:25:02.308Z,3.40
2023-01-23T06:27:30.103Z,4.00
2023-01-23T06:30:02.714Z,3.00
2023-01-23T06:32:31.773Z,5.00
2023-01-23T06:34:59.527Z,5.20
2023-01-23T06:37:28.403Z,3.20
2023-01-23T06:39:55.815Z,7.40
2023-01-23T06:42:23.412Z,8.60
2023-01-23T06:44:50.714Z,3.20
2023-01-23T06:47:19.759Z,4.80
2023-01-23T06:49:55.198Z,6.80
2023-01-23T06:52:24.094Z,10.00
2023-01-23T06:54:51.375Z,7.80
2023-01-23T06:57:18.688Z,7.00
2023-01-23T06:59:47.997Z,7.40
2023-01-23T07:02:16.745Z,1.80
2023-01-23T07:04:46.508Z,5.20
2023-01-23T07:07:13.885Z,7.00
2023-01-23T07:09:42.002Z,4.40
2023-01-23T07:12:14.375Z,4.00
2023-01-23T07:14:41.768Z,4.00
2023-01-23T07:17:11.390Z,5.20
2023-01-23T07:19:38.703Z,5.20
2023-01-23T07:22:09.638Z,3.80
2023-01-23T07:24:36.967Z,6.60
2023-01-23T07:27:04.412Z,5.60
2023-01-23T07:29:31.840Z,4.00
2023-01-23T07:32:01.565Z,4.60
2023-01-23T07:34:29.210Z,4.80
2023-01-23T07:36:56.436Z,6.00
2023-01-23T07:39:23.859Z,3.60
2023-01-23T07:41:51.197Z,3.80
2023-01-23T07:44:20.571Z,6.20
2023-01-23T07:46:48.899Z,3.00
2023-01-23T07:49:16.395Z,4.80
2023-01-23T07:51:43.687Z,4.80
2023-01-23T07:54:11.430Z,3.60
2023-01-23T07:56:38.680Z,6.00
2023-01-23T07:59:05.983Z,3.20
2023-01-23T08:01:33.208Z,4.40
2023-01-23T08:04:00.564Z,6.20
2023-01-23T08:06:27.800Z,6.20
2023-01-23T08:08:55.186Z,6.60
2023-01-23T08:11:24.201Z,4.40
2023-01-23T08:13:51.677Z,6.00
2023-01-23T08:16:19.112Z,6.80
2023-01-23T08:18:46.480Z,9.40
2023-01-23T08:21:13.907Z,9.00
2023-01-23T08:23:41.313Z,17.00
2023-01-23T08:26:11.531Z,12.20
2023-01-23T08:28:38.887Z,12.20
2023-01-23T08:31:08.664Z,15.00
2023-01-23T08:33:38.230Z,10.80
2023-01-23T08:36:06.840Z,10.40
2023-01-23T08:38:34.279Z,8.60
2023-01-23T08:41:03.222Z,17.80
2023-01-23T08:43:31.394Z,15.80
2023-01-23T08:45:59.819Z,14.20
2023-01-23T08:48:28.455Z,8.80
2023-01-23T08:51:01.810Z,10.20
2023-01-23T08:53:30.135Z,12.20
2023-01-23T08:56:02.080Z,6.60
2023-01-23T08:58:30.127Z,12.60
2023-01-23T09:00:57.632Z,9.40
2023-01-23T09:03:25.553Z,10.00
2023-01-23T09:05:52.762Z,9.60
2023-01-23T09:08:20.531Z,3.80
2023-01-23T09:10:48.028Z,6.60
2023-01-23T09:13:16.077Z,8.60
2023-01-23T09:15:43.812Z,10.00
2023-01-23T09:18:11.463Z,7.40
2023-01-23T09:20:39.743Z,6.20
2023-01-23T09:23:07.285Z,9.80
2023-01-23T09:25:34.740Z,6.20
2023-01-23T09:28:02.255Z,9.00
2023-01-23T09:30:29.674Z,5.60
2023-01-23T09:32:57.472Z,6.20
2023-01-23T09:35:25.087Z,3.40
2023-01-23T09:38:07.108Z,6.00
2023-01-23T09:40:50.528Z,7.00
2023-01-23T09:43:25.572Z,5.60
2023-01-23T09:46:15.113Z,7.80
2023-01-23T09:48:48.252Z,6.80
2023-01-23T09:51:42.319Z,6.60
2023-01-23T09:54:36.408Z,6.60
2023-01-23T09:57:13.327Z,8.60
2023-01-23T10:00:00.452Z,6.60
2023-01-23T10:02:29.420Z,10.00
2023-01-23T10:04:59.064Z,8.00
2023-01-23T10:07:59.022Z,4.80
2023-01-23T10:11:07.962Z,6.60
2023-01-23T10:13:35.463Z,6.20
2023-01-23T10:16:24.761Z,15.20
2023-01-23T10:19:35.821Z,9.00
2023-01-23T10:22:37.402Z,8.20
2023-01-23T10:25:36.012Z,13.40
2023-01-23T10:28:39.057Z,8.60
2023-01-23T10:31:30.589Z,9.60
2023-01-23T10:34:03.472Z,15.60
2023-01-23T10:36:54.988Z,9.00
2023-01-23T10:39:59.677Z,12.80
2023-01-23T10:42:28.134Z,10.20
2023-01-23T10:44:55.567Z,12.20
2023-01-23T10:47:42.888Z,9.20
2023-01-23T10:50:11.815Z,6.80
2023-01-23T10:52:46.966Z,11.80
2023-01-23T10:55:20.804Z,12.80
2023-01-23T10:57:53.558Z,9.00
2023-01-23T11:00:36.027Z,9.60
2023-01-23T11:03:21.792Z,7.80
2023-01-23T11:06:16.470Z,9.20
2023-01-23T11:08:56.895Z,10.20
2023-01-23T11:11:27.583Z,12.00
2023-01-23T11:14:14.247Z,8.80
2023-01-23T11:16:42.625Z,9.20
2023-01-23T11:19:18.508Z,10.60
2023-01-23T11:21:55.783Z,9.60
2023-01-23T11:24:38.406Z,10.00
2023-01-23T11:27:20.887Z,9.20
2023-01-23T11:30:19.328Z,9.80
2023-01-23T11:33:19.419Z,9.40
2023-01-23T11:36:09.720Z,15.00
2023-01-23T11:38:52.591Z,10.00
2023-01-23T11:41:31.220Z,13.40
2023-01-23T11:43:59.338Z,7.00
2023-01-23T11:46:29.947Z,12.80
2023-01-23T11:49:18.785Z,7.80
2023-01-23T11:51:49.247Z,10.80
2023-01-23T11:54:28.955Z,11.20
2023-01-23T11:57:27.486Z,9.60
2023-01-23T12:00:13.762Z,7.40
2023-01-23T12:03:03.725Z,9.20
2023-01-23T12:06:18.914Z,7.80
2023-01-23T12:09:12.391Z,6.60
2023-01-23T12:12:01.360Z,3.60
2023-01-23T12:14:51.770Z,6.60
2023-01-23T12:17:48.864Z,4.00
2023-01-23T12:20:41.815Z,5.60
2023-01-23T12:23:46.720Z,3.60
2023-01-23T12:26:19.813Z,6.60
2023-01-23T12:29:10.986Z,4.40
2023-01-23T12:32:07.791Z,6.00
2023-01-23T12:35:22.559Z,5.60
2023-01-23T12:38:17.391Z,1.00
2023-01-23T12:40:53.170Z,5.60
2023-01-23T12:43:55.165Z,3.00
2023-01-23T12:46:51.695Z,2.20
2023-01-23T12:49:25.602Z,4.00
2023-01-23T12:52:36.240Z,3.40
2023-01-23T12:55:38.322Z,4.40
2023-01-23T12:58:09.629Z,3.00
2023-01-23T13:01:13.094Z,6.00
2023-01-23T13:04:20.724Z,4.00
2023-01-23T13:07:04.795Z,3.80
2023-01-23T13:09:56.808Z,6.40
2023-01-23T13:12:27.620Z,6.00
2023-01-23T13:15:22.722Z,4.80
2023-01-23T13:17:58.337Z,4.00
2023-01-23T13:20:57.941Z,3.80
2023-01-23T13:23:35.676Z,3.80
2023-01-23T13:26:23.429Z,5.20
2023-01-23T13:28:55.707Z,3.20
2023-01-23T13:31:42.185Z,3.40
2023-01-23T13:34:21.974Z,4.00
2023-01-23T13:36:51.703Z,4.00
2023-01-23T13:39:19.890Z,5.60
2023-01-23T13:42:16.605Z,1.00
2023-01-23T13:45:21.868Z,6.60
2023-01-23T14:20:19.496Z,5.60
2023-01-23T14:22:59.965Z,6.00
2023-01-23T14:25:27.721Z,4.40
2023-01-23T14:28:07.271Z,3.80
2023-01-23T14:30:34.683Z,6.60
2023-01-23T14:33:10.686Z,4.00
2023-01-23T14:35:40.407Z,6.40
2023-01-23T14:38:08.508Z,4.80
2023-01-23T14:40:50.182Z,4.80
2023-01-23T14:43:28.542Z,6.40
2023-01-23T14:46:18.297Z,6.00
2023-01-23T14:48:54.867Z,3.00
2023-01-23T14:51:27.408Z,11.20
2023-01-23T14:54:00.808Z,7.80
2023-01-23T14:56:40.066Z,6.60
2023-01-23T14:59:16.339Z,22.20
2023-01-23T15:01:52.944Z,28.00
2023-01-23T15:04:23.758Z,8.60
2023-01-23T15:06:57.840Z,5.60
2023-01-23T15:09:41.847Z,3.80
2023-01-23T15:12:19.480Z,3.60
2023-01-23T15:14:52.656Z,6.60
2023-01-23T15:17:21.800Z,3.00
2023-01-23T15:19:55.715Z,6.40
2023-01-23T15:22:29.268Z,4.80
2023-01-23T15:24:57.555Z,4.00
2023-01-23T15:27:25.267Z,3.80
2023-01-23T15:30:31.505Z,3.00
2023-01-23T15:33:06.300Z,5.60
2023-01-23T15:35:35.730Z,3.20
2023-01-23T15:38:08.699Z,3.00
2023-01-23T15:40:38.588Z,1.00
2023-01-23T15:43:10.556Z,3.60
2023-01-23T15:45:38.453Z,4.00
2023-01-23T15:48:06.704Z,1.00
2023-01-23T15:50:34.273Z,4.00
2023-01-23T15:53:01.771Z,4.80
2023-01-23T15:55:29.542Z,3.40
2023-01-23T15:57:57.126Z,3.00
2023-01-23T16:00:29.672Z,3.00
2023-01-23T16:02:59.133Z,4.00
2023-01-23T16:05:29.607Z,3.00
2023-01-23T16:08:01.340Z,5.20
2023-01-23T16:10:32.133Z,4.80
2023-01-23T16:12:59.457Z,3.60
2023-01-23T16:15:29.982Z,3.00
2023-01-23T16:17:57.473Z,1.80
2023-01-23T16:20:35.091Z,3.60
2023-01-23T16:23:14.576Z,4.00
2023-01-23T16:25:45.544Z,3.40
2023-01-23T16:28:19.237Z,5.60
2023-01-23T16:30:47.805Z,3.00
2023-01-23T16:33:16.237Z,5.40
2023-01-23T16:35:44.160Z,1.00
2023-01-23T16:38:28.890Z,5.20
2023-01-23T16:40:59.799Z,3.40
2023-01-23T16:43:27.894Z,3.40
2023-01-23T16:45:56.847Z,3.20
2023-01-23T16:48:27.961Z,3.20
2023-01-23T16:51:04.967Z,3.60
2023-01-23T16:53:44.328Z,2.20
2023-01-23T16:56:25.084Z,3.20
2023-01-23T16:58:52.441Z,3.00
2023-01-23T17:01:23.186Z,4.00
2023-01-23T17:04:00.046Z,4.00
2023-01-23T17:06:27.502Z,3.20
2023-01-23T17:08:56.443Z,3.60
2023-01-23T17:11:46.228Z,5.20
2023-01-23T17:14:21.368Z,3.00
2023-01-23T17:16:51.198Z,4.40
2023-01-23T17:19:47.102Z,6.00
2023-01-23T17:22:38.666Z,3.00
2023-01-23T17:25:23.087Z,3.40
2023-01-23T17:28:07.251Z,5.20
2023-01-23T17:30:40.881Z,4.00
2023-01-23T17:33:22.990Z,3.60
2023-01-23T17:35:51.142Z,3.60
2023-01-23T17:38:20.417Z,3.60
2023-01-23T17:40:48.068Z,3.00
2023-01-23T17:43:16.873Z,3.00
2023-01-23T17:45:46.666Z,5.20
2023-01-23T17:48:16.791Z,2.60
2023-01-23T17:50:46.581Z,4.80
2023-01-23T17:53:15.772Z,3.20
2023-01-23T17:55:47.225Z,3.40
2023-01-23T17:58:15.334Z,4.00
2023-01-23T18:00:44.677Z,3.00
2023-01-23T18:03:22.328Z,2.60
2023-01-23T18:05:50.009Z,3.60
2023-01-23T18:08:19.405Z,4.80
2023-01-23T18:10:49.304Z,5.20
2023-01-23T18:13:34.857Z,1.40
2023-01-23T18:16:24.217Z,4.40
2023-01-23T18:19:25.786Z,5.00
2023-01-23T18:21:55.613Z,5.60
2023-01-23T18:24:33.171Z,3.20
2023-01-23T18:27:04.545Z,3.40
2023-01-23T18:30:06.918Z,3.00
2023-01-23T18:33:03.843Z,6.00
2023-01-23T18:35:52.035Z,3.00
2023-01-23T18:38:52.923Z,4.00
2023-01-23T18:41:25.958Z,6.00
2023-01-23T18:43:56.354Z,4.00
2023-01-23T18:46:24.397Z,6.00
2023-01-23T18:48:52.003Z,3.40
2023-01-23T18:51:38.652Z,4.00
2023-01-23T18:54:49.432Z,3.40
2023-01-23T18:57:55.278Z,3.00
2023-01-23T19:00:31.199Z,5.20
2023-01-23T19:03:12.582Z,5.20
2023-01-23T19:05:40.405Z,4.40
2023-01-23T19:08:15.666Z,3.00
2023-01-23T19:10:48.706Z,4.00
2023-01-23T19:13:21.345Z,4.00
2023-01-23T19:16:31.592Z,7.00
2023-01-23T19:19:16.468Z,5.20
2023-01-23T19:21:46.767Z,4.40
2023-01-23T19:24:18.823Z,8.50
2023-01-23T19:26:46.886Z,3.60
2023-01-23T19:29:21.971Z,4.80
2023-01-23T19:32:06.924Z,3.00
2023-01-23T19:34:35.149Z,7.00
2023-01-23T19:37:03.420Z,4.40
2023-01-23T19:39:31.058Z,5.00
2023-01-23T19:41:59.611Z,4.00
2023-01-23T19:44:29.267Z,4.00
2023-01-23T19:46:56.614Z,4.00
2023-01-23T19:49:25.498Z,5.20
2023-01-23T19:51:52.811Z,8.80
2023-01-23T19:54:22.213Z,5.00
2023-01-23T19:56:51.287Z,4.80
2023-01-23T19:59:19.005Z,5.60
2023-01-23T20:01:51.329Z,5.80
2023-01-23T20:04:23.700Z,6.80
2023-01-23T20:06:54.245Z,6.60
2023-01-23T20:09:22.491Z,11.20
2023-01-23T20:11:50.241Z,6.00
2023-01-23T20:14:17.554Z,3.80
2023-01-23T20:16:45.040Z,6.00
2023-01-23T20:19:17.104Z,3.20
2023-01-23T20:21:46.901Z,3.80
2023-01-23T20:24:16.014Z,4.80
2023-01-23T20:26:43.674Z,3.40
2023-01-23T20:29:12.551Z,3.80
2023-01-23T20:31:40.376Z,1.00
2023-01-23T20:34:08.009Z,4.00
2023-01-23T20:36:35.600Z,4.80
2023-01-23T20:39:03.966Z,4.40
2023-01-23T20:41:31.621Z,4.00
2023-01-23T20:43:59.045Z,3.80
2023-01-23T20:46:27.252Z,1.40
2023-01-23T20:48:55.603Z,3.60
2023-01-23T20:51:23.141Z,5.20
2023-01-23T20:53:50.932Z,3.20
2023-01-23T20:56:21.701Z,5.60
2023-01-23T20:59:08.851Z,3.40
2023-01-23T21:01:57.239Z,1.00
2023-01-23T21:04:27.860Z,2.20
2023-01-23T21:06:55.462Z,3.80
2023-01-23T21:09:24.076Z,3.80
2023-01-23T21:11:52.906Z,1.80
2023-01-23T21:14:21.827Z,1.40
2023-01-23T21:16:49.768Z,3.50
2023-01-23T21:19:17.486Z,3.80
2023-01-23T21:21:45.467Z,6.60
2023-01-23T21:24:13.311Z,3.00
2023-01-23T21:26:40.899Z,4.40
2023-01-23T21:29:08.989Z,1.00
2023-01-23T21:31:41.759Z,4.40
2023-01-23T21:34:12.455Z,5.00
2023-01-23T21:36:42.295Z,3.00
2023-01-23T21:39:12.846Z,3.50
2023-01-23T21:41:40.492Z,4.00
2023-01-23T21:44:09.458Z,3.50
2023-01-23T21:46:37.208Z,3.00
2023-01-23T21:49:04.862Z,6.00
2023-01-23T21:51:32.911Z,4.00
2023-01-23T21:54:00.338Z,5.20
2023-01-23T21:56:27.992Z,5.50
2023-01-23T21:58:55.667Z,3.00
2023-01-23T22:01:57.888Z,3.40
2023-01-23T22:04:26.052Z,2.50
2023-01-23T22:06:56.185Z,3.20
2023-01-23T22:09:25.929Z,6.00
2023-01-23T22:11:54.385Z,5.40
2023-01-23T22:14:22.080Z,3.50
2023-01-23T22:16:50.909Z,2.60
2023-01-23T22:19:24.722Z,5.50
2023-01-23T22:21:55.667Z,6.50
2023-01-23T22:24:23.342Z,4.75
2023-01-23T22:26:50.984Z,2.00
2023-01-23T22:29:18.791Z,4.00
2023-01-23T22:31:46.641Z,3.75
2023-01-23T22:34:14.329Z,5.50
2023-01-23T22:36:42.311Z,4.00
2023-01-23T22:39:14.243Z,6.75
2023-01-23T22:41:44.398Z,3.00
2023-01-23T22:44:12.968Z,4.00
2023-01-23T22:46:40.742Z,3.75
2023-01-23T22:49:08.252Z,1.50
2023-01-23T22:51:36.147Z,2.50
2023-01-23T22:54:03.738Z,4.50
2023-01-23T22:56:32.267Z,4.75
2023-01-23T22:59:01.645Z,3.00
2023-01-23T23:01:29.287Z,5.50
2023-01-23T23:03:58.227Z,4.00
2023-01-23T23:06:26.820Z,4.40
2023-01-23T23:08:55.104Z,6.67
2023-01-23T23:11:24.881Z,4.00
2023-01-23T23:13:53.682Z,4.50
2023-01-23T23:16:28.401Z,2.50
2023-01-23T23:18:57.584Z,3.25
2023-01-23T23:21:28.695Z,3.00
2023-01-23T23:24:00.864Z,1.50
2023-01-23T23:26:31.643Z,5.00
2023-01-23T23:29:00.762Z,4.00
2023-01-23T23:31:28.579Z,4.00
2023-01-23T23:33:56.387Z,3.00
2023-01-23T23:36:23.987Z,3.00
2023-01-23T23:38:51.791Z,0.50
2023-01-23T23:41:19.461Z,4.00
2023-01-23T23:43:46.943Z,4.00
2023-01-23T23:46:15.917Z,6.75
2023-01-23T23:48:44.124Z,2.00
2023-01-23T23:51:14.581Z,4.00
2023-01-23T23:53:42.435Z,3.25
2023-01-23T23:56:17.597Z,3.50
2023-01-23T23:58:45.203Z,3.00
